createdAt,value
2022-11-01T00:01:06.209Z,15.10
2022-11-01T00:03:54.131Z,13.02
2022-11-01T00:06:41.413Z,12.93
2022-11-01T00:09:28.877Z,18.77
2022-11-01T00:12:16.538Z,13.33
2022-11-01T00:15:05.741Z,14.40
2022-11-01T00:17:52.847Z,11.95
2022-11-01T00:20:40.430Z,14.48
2022-11-01T00:23:28.301Z,16.50
2022-11-01T00:26:18.323Z,15.90
2022-11-01T00:29:06.096Z,15.98
2022-11-01T00:31:54.833Z,15.93
2022-11-01T00:34:42.483Z,18.23
2022-11-01T00:37:30.088Z,15.45
2022-11-01T00:40:17.852Z,16.23
2022-11-01T00:43:05.608Z,16.33
2022-11-01T00:45:53.093Z,14.80
2022-11-01T00:48:42.015Z,23.65
2022-11-01T00:51:29.905Z,16.50
2022-11-01T00:54:17.108Z,14.83
2022-11-01T00:57:04.260Z,18.60
2022-11-01T01:02:44.638Z,16.92
2022-11-01T01:05:33.987Z,15.18
2022-11-01T01:08:21.639Z,15.13
2022-11-01T01:11:08.746Z,13.55
2022-11-01T01:13:56.282Z,13.23
2022-11-01T01:16:43.916Z,13.98
2022-11-01T01:19:31.646Z,14.85
2022-11-01T01:22:20.218Z,15.93
2022-11-01T01:25:08.658Z,15.40
2022-11-01T01:27:56.588Z,15.20
2022-11-01T01:30:44.024Z,17.70
2022-11-01T01:33:32.528Z,17.48
2022-11-01T01:36:20.289Z,15.43
2022-11-01T01:39:10.160Z,14.77
2022-11-01T01:41:57.769Z,14.55
2022-11-01T01:45:20.472Z,12.63
2022-11-01T01:48:14.140Z,15.70
2022-11-01T01:51:05.822Z,13.10
2022-11-01T01:53:56.196Z,16.58
2022-11-01T01:56:45.069Z,13.07
2022-11-01T01:59:33.639Z,13.75
2022-11-01T02:02:22.243Z,17.05
2022-11-01T02:05:17.175Z,14.37
2022-11-01T02:08:06.820Z,12.85
2022-11-01T02:10:55.583Z,14.75
2022-11-01T02:13:45.238Z,13.25
2022-11-01T02:16:48.352Z,13.27
2022-11-01T02:20:14.549Z,13.50
2022-11-01T02:23:45.134Z,15.30
2022-11-01T02:26:54.790Z,19.45
2022-11-01T02:30:04.836Z,12.40
2022-11-01T02:33:09.643Z,16.02
2022-11-01T02:36:05.193Z,16.97
2022-11-01T02:38:58.958Z,13.20
2022-11-01T02:41:52.357Z,11.07
2022-11-01T02:44:44.466Z,13.77
2022-11-01T02:47:33.769Z,12.20
2022-11-01T02:50:23.025Z,12.23
2022-11-01T02:53:11.005Z,15.15
2022-11-01T02:55:58.316Z,14.30
2022-11-01T02:58:47.197Z,14.05
2022-11-01T03:01:36.743Z,15.68
2022-11-01T03:04:24.940Z,13.23
2022-11-01T03:07:16.612Z,14.73
2022-11-01T03:10:04.392Z,13.48
2022-11-01T03:13:02.527Z,12.25
2022-11-01T03:15:58.190Z,13.40
2022-11-01T03:18:54.769Z,12.70
2022-11-01T03:21:48.742Z,14.48
2022-11-01T03:24:46.690Z,16.70
2022-11-01T03:27:38.904Z,12.30
2022-11-01T03:30:26.229Z,15.90
2022-11-01T03:33:16.639Z,14.10
2022-11-01T03:36:13.473Z,15.90
2022-11-01T03:39:06.324Z,11.35
2022-11-01T03:42:01.278Z,14.43
2022-11-01T03:44:53.639Z,13.23
2022-11-01T03:47:40.707Z,15.53
2022-11-01T03:50:29.842Z,12.80
2022-11-01T03:53:17.543Z,15.25
2022-11-01T03:56:05.128Z,12.82
2022-11-01T03:58:54.187Z,15.95
2022-11-01T04:01:41.536Z,14.07
2022-11-01T04:04:28.829Z,14.60
2022-11-01T04:07:15.913Z,13.60
2022-11-01T04:10:03.298Z,13.60
2022-11-01T04:12:51.789Z,12.25
2022-11-01T04:15:57.632Z,13.03
2022-11-01T04:19:02.170Z,10.98
2022-11-01T04:21:49.479Z,12.70
2022-11-01T04:24:37.175Z,16.00
2022-11-01T04:27:24.471Z,14.05
2022-11-01T04:30:13.220Z,12.30
2022-11-01T04:33:02.054Z,12.93
2022-11-01T04:35:50.160Z,13.27
2022-11-01T04:38:37.448Z,13.02
2022-11-01T04:41:26.431Z,14.90
2022-11-01T04:44:13.778Z,14.20
2022-11-01T04:47:01.335Z,13.18
2022-11-01T04:49:50.175Z,12.05
2022-11-01T04:52:37.933Z,14.82
2022-11-01T04:55:25.313Z,14.45
2022-11-01T04:58:14.420Z,13.57
2022-11-01T05:01:06.000Z,13.23
2022-11-01T05:03:53.511Z,16.88
2022-11-01T05:06:42.122Z,13.45
2022-11-01T05:09:31.172Z,16.05
2022-11-01T05:12:19.391Z,13.07
2022-11-01T05:15:08.632Z,14.00
2022-11-01T05:17:56.980Z,13.23
2022-11-01T05:20:44.021Z,14.20
2022-11-01T05:23:32.946Z,13.30
2022-11-01T05:26:21.150Z,11.87
2022-11-01T05:29:23.907Z,12.52
2022-11-01T05:32:12.243Z,9.68
2022-11-01T05:34:59.768Z,10.10
2022-11-01T05:37:47.305Z,7.75
2022-11-01T05:40:35.892Z,10.00
2022-11-01T05:43:23.400Z,7.53
2022-11-01T05:46:10.349Z,8.80
2022-11-01T05:48:58.316Z,7.80
2022-11-01T05:51:46.012Z,8.73
2022-11-01T05:54:33.547Z,8.40
2022-11-01T05:57:22.347Z,8.15
2022-11-01T06:00:10.883Z,8.07
2022-11-01T06:03:02.071Z,8.27
2022-11-01T06:05:49.851Z,10.32
2022-11-01T06:08:38.939Z,7.23
2022-11-01T06:11:26.978Z,8.75
2022-11-01T06:14:15.899Z,8.70
2022-11-01T06:17:03.181Z,10.23
2022-11-01T06:19:50.846Z,10.57
2022-11-01T06:22:37.813Z,10.50
2022-11-01T06:25:26.375Z,8.60
2022-11-01T06:28:13.694Z,8.07
2022-11-01T06:33:50.927Z,6.45
2022-11-01T06:36:38.388Z,8.27
2022-11-01T06:39:25.807Z,9.00
2022-11-01T06:42:12.947Z,7.45
2022-11-01T06:45:00.096Z,7.55
2022-11-01T06:47:49.725Z,11.52
2022-11-01T06:50:37.082Z,6.90
2022-11-01T06:53:24.754Z,8.75
2022-11-01T06:56:12.177Z,11.02
2022-11-01T06:59:00.387Z,6.75
2022-11-01T07:01:47.989Z,8.35
2022-11-01T07:04:37.422Z,7.70
2022-11-01T07:07:24.795Z,6.78
2022-11-01T07:10:12.268Z,6.57
2022-11-01T07:13:00.240Z,7.10
2022-11-01T07:15:47.860Z,6.03
2022-11-01T07:18:35.599Z,7.20
2022-11-01T07:21:24.123Z,11.77
2022-11-01T07:24:11.664Z,9.98
2022-11-01T07:26:59.099Z,6.07
2022-11-01T07:29:46.213Z,7.93
2022-11-01T07:32:37.616Z,7.83
2022-11-01T07:35:28.305Z,7.55
2022-11-01T07:38:17.698Z,8.80
2022-11-01T07:41:06.556Z,7.18
2022-11-01T07:43:55.066Z,9.77
2022-11-01T07:46:42.228Z,9.13
2022-11-01T07:49:29.794Z,9.98
2022-11-01T07:52:17.984Z,6.53
2022-11-01T07:55:07.942Z,7.20
2022-11-01T07:57:55.385Z,9.18
2022-11-01T08:00:45.129Z,8.17
2022-11-01T08:03:32.771Z,6.75
2022-11-01T08:09:08.143Z,7.00
2022-11-01T08:11:57.263Z,6.47
2022-11-01T08:14:45.188Z,7.53
2022-11-01T08:17:32.736Z,6.03
2022-11-01T08:20:20.463Z,8.05
2022-11-01T08:23:08.144Z,7.30
2022-11-01T08:25:55.853Z,7.47
2022-11-01T08:28:44.692Z,6.43
2022-11-01T08:31:32.175Z,8.25
2022-11-01T08:34:19.138Z,7.57
2022-11-01T08:37:07.153Z,7.45
2022-11-01T08:39:55.177Z,7.63
2022-11-01T08:42:42.249Z,7.27
2022-11-01T08:45:31.421Z,6.28
2022-11-01T08:48:24.553Z,9.25
2022-11-01T08:51:12.228Z,6.40
2022-11-01T08:53:59.832Z,7.47
2022-11-01T08:56:47.409Z,8.63
2022-11-01T08:59:34.445Z,6.97
2022-11-01T09:02:23.942Z,5.70
2022-11-01T09:05:11.817Z,4.72
2022-11-01T09:08:00.160Z,4.13
2022-11-01T09:10:47.964Z,6.33
2022-11-01T09:13:35.459Z,4.82
2022-11-01T09:16:22.971Z,4.28
2022-11-01T09:19:12.075Z,3.95
2022-11-01T09:21:59.391Z,4.07
2022-11-01T09:24:47.000Z,4.07
2022-11-01T09:27:34.403Z,5.88
2022-11-01T09:30:21.874Z,4.10
2022-11-01T09:33:09.593Z,7.18
2022-11-01T09:35:59.754Z,4.82
2022-11-01T09:38:47.413Z,4.87
2022-11-01T09:41:39.111Z,4.07
2022-11-01T09:44:31.566Z,4.13
2022-11-01T09:47:22.249Z,7.03
2022-11-01T09:50:18.411Z,3.38
2022-11-01T09:53:15.178Z,5.23
2022-11-01T09:56:10.425Z,7.53
2022-11-01T09:59:05.187Z,4.13
2022-11-01T10:02:08.765Z,10.23
2022-11-01T10:05:18.835Z,6.18
2022-11-01T10:08:19.120Z,5.23
2022-11-01T10:11:26.954Z,3.95
2022-11-01T10:14:32.511Z,6.97
2022-11-01T10:17:30.362Z,7.72
2022-11-01T10:20:18.592Z,5.47
2022-11-01T10:23:09.429Z,6.00
2022-11-01T10:25:57.132Z,5.88
2022-11-01T10:28:51.081Z,7.55
2022-11-01T10:31:45.155Z,4.53
2022-11-01T10:34:36.856Z,5.15
2022-11-01T10:37:31.111Z,9.10
2022-11-01T10:40:25.115Z,7.82
2022-11-01T10:43:15.649Z,5.95
2022-11-01T10:46:05.138Z,7.00
2022-11-01T10:48:56.512Z,7.03
2022-11-01T10:51:46.197Z,5.63
2022-11-01T10:54:36.198Z,7.13
2022-11-01T10:57:31.765Z,9.05
2022-11-01T11:00:21.510Z,6.90
2022-11-01T11:03:22.186Z,6.30
2022-11-01T11:06:13.504Z,4.97
2022-11-01T11:09:01.553Z,8.85
2022-11-01T11:11:50.694Z,7.85
2022-11-01T11:14:42.298Z,7.28
2022-11-01T11:17:32.625Z,5.85
2022-11-01T11:20:23.367Z,7.67
2022-11-01T11:23:13.365Z,8.75
2022-11-01T11:26:06.025Z,8.15
2022-11-01T11:28:57.266Z,6.63
2022-11-01T11:31:45.966Z,6.43
2022-11-01T11:34:36.020Z,9.57
2022-11-01T11:37:25.465Z,8.48
2022-11-01T11:40:20.466Z,6.68
2022-11-01T11:43:23.218Z,6.88
2022-11-01T11:46:21.058Z,5.28
2022-11-01T11:49:27.743Z,7.43
2022-11-01T11:52:20.410Z,11.13
2022-11-01T11:55:35.828Z,7.20
2022-11-01T11:58:29.100Z,9.45
2022-11-01T12:01:22.306Z,9.98
2022-11-01T12:04:16.362Z,7.73
2022-11-01T12:07:06.957Z,9.27
2022-11-01T12:09:55.379Z,7.10
2022-11-01T12:12:53.455Z,8.10
2022-11-01T12:15:41.582Z,8.48
2022-11-01T12:18:29.452Z,9.07
2022-11-01T12:21:22.481Z,11.38
2022-11-01T12:24:23.872Z,6.40
2022-11-01T12:27:15.535Z,11.15
2022-11-01T12:30:08.382Z,11.35
2022-11-01T12:32:57.836Z,9.17
2022-11-01T12:35:47.289Z,7.65
2022-11-01T12:38:44.415Z,7.45
2022-11-01T12:41:37.734Z,8.02
2022-11-01T12:44:33.569Z,7.95
2022-11-01T12:47:26.109Z,10.80
2022-11-01T12:50:20.509Z,8.43
2022-11-01T12:53:14.614Z,9.30
2022-11-01T12:56:03.544Z,8.82
2022-11-01T12:58:53.999Z,9.00
2022-11-01T13:01:52.780Z,7.67
2022-11-01T13:04:46.464Z,9.13
2022-11-01T13:07:45.289Z,6.43
2022-11-01T13:10:38.389Z,9.32
2022-11-01T13:13:35.379Z,5.80
2022-11-01T13:16:30.566Z,9.37
2022-11-01T13:19:24.880Z,8.10
2022-11-01T13:22:20.129Z,9.45
2022-11-01T13:25:14.901Z,9.43
2022-11-01T13:28:12.501Z,8.00
2022-11-01T13:31:06.432Z,8.77
2022-11-01T13:34:00.247Z,7.05
2022-11-01T13:36:58.620Z,10.43
2022-11-01T13:39:59.712Z,8.85
2022-11-01T13:42:51.942Z,8.77
2022-11-01T13:46:03.482Z,12.43
2022-11-01T13:49:14.993Z,9.02
2022-11-01T13:52:10.258Z,6.47
2022-11-01T13:55:05.376Z,6.80
2022-11-01T13:57:54.144Z,10.98
2022-11-01T14:00:44.705Z,7.70
2022-11-01T14:03:33.156Z,7.15
2022-11-01T14:06:31.707Z,8.38
2022-11-01T14:09:30.788Z,7.95
2022-11-01T14:12:43.318Z,8.90
2022-11-01T14:15:36.523Z,8.63
2022-11-01T14:18:23.746Z,7.82
2022-11-01T14:21:28.791Z,7.95
2022-11-01T14:24:30.692Z,9.02
2022-11-01T14:27:33.887Z,7.68
2022-11-01T14:30:23.729Z,8.37
2022-11-01T14:33:15.708Z,8.07
2022-11-01T14:36:05.704Z,6.15
2022-11-01T14:38:57.953Z,8.52
2022-11-01T14:41:52.356Z,9.65
2022-11-01T14:44:50.422Z,8.23
2022-11-01T14:47:41.065Z,7.93
2022-11-01T14:50:33.396Z,7.30
2022-11-01T14:53:27.988Z,10.43
2022-11-01T14:56:17.505Z,9.27
2022-11-01T14:59:20.583Z,7.27
2022-11-01T15:02:09.136Z,8.07
2022-11-01T15:05:00.300Z,8.50
2022-11-01T15:07:52.314Z,9.20
2022-11-01T15:10:42.358Z,8.00
2022-11-01T15:13:32.474Z,9.50
2022-11-01T15:16:23.911Z,6.75
2022-11-01T15:19:17.732Z,6.28
2022-11-01T15:22:06.796Z,8.43
2022-11-01T15:24:58.328Z,15.07
2022-11-01T15:27:48.349Z,8.37
2022-11-01T15:30:36.920Z,5.80
2022-11-01T15:33:28.340Z,8.27
2022-11-01T15:36:22.426Z,11.68
2022-11-01T15:39:19.284Z,8.30
2022-11-01T15:42:14.929Z,7.90
2022-11-01T15:45:18.935Z,6.13
2022-11-01T15:48:11.142Z,7.30
2022-11-01T15:51:03.484Z,6.45
2022-11-01T15:53:57.794Z,7.78
2022-11-01T15:56:50.281Z,7.53
2022-11-01T15:59:47.003Z,8.00
2022-11-01T16:02:42.482Z,6.95
2022-11-01T16:05:34.350Z,7.43
2022-11-01T16:08:31.325Z,5.18
2022-11-01T16:11:20.852Z,7.53
2022-11-01T16:14:25.634Z,6.30
2022-11-01T16:17:32.906Z,6.75
2022-11-01T16:20:30.260Z,6.65
2022-11-01T16:23:28.791Z,12.98
2022-11-01T16:26:16.743Z,8.57
2022-11-01T16:29:03.911Z,7.50
2022-11-01T16:32:09.480Z,7.72
2022-11-01T16:35:00.315Z,8.05
2022-11-01T16:37:48.024Z,8.23
2022-11-01T16:40:39.008Z,8.13
2022-11-01T16:43:28.463Z,7.72
2022-11-01T16:46:16.062Z,8.60
2022-11-01T16:49:17.711Z,8.27
2022-11-01T16:52:11.742Z,10.57
2022-11-01T16:57:50.491Z,7.00
2022-11-01T17:00:38.880Z,8.70
2022-11-01T17:03:26.565Z,12.68
2022-11-01T17:06:14.997Z,9.85
2022-11-01T17:09:02.573Z,9.27
2022-11-01T17:11:53.435Z,8.90
2022-11-01T17:14:43.076Z,9.00
2022-11-01T17:17:31.766Z,7.68
2022-11-01T17:20:23.663Z,10.05
2022-11-01T17:23:16.952Z,10.93
2022-11-01T17:26:06.358Z,9.65
2022-11-01T17:28:53.880Z,10.43
2022-11-01T17:31:42.671Z,7.88
2022-11-01T17:34:30.094Z,8.68
2022-11-01T17:37:18.478Z,13.47
2022-11-01T17:40:18.572Z,10.38
2022-11-01T17:43:06.280Z,13.75
2022-11-01T17:45:54.890Z,10.90
2022-11-01T17:48:44.092Z,8.68
2022-11-01T17:51:32.321Z,7.60
2022-11-01T17:54:20.204Z,10.23
2022-11-01T17:57:07.436Z,7.97
2022-11-01T17:59:56.328Z,8.30
2022-11-01T18:02:44.259Z,8.80
2022-11-01T18:05:33.677Z,9.77
2022-11-01T18:08:21.889Z,9.60
2022-11-01T18:11:15.071Z,10.73
2022-11-01T18:14:07.468Z,7.18
2022-11-01T18:17:02.051Z,7.18
2022-11-01T18:19:58.067Z,8.70
2022-11-01T18:22:55.691Z,7.97
2022-11-01T18:25:46.047Z,7.68
2022-11-01T18:28:35.294Z,8.48
2022-11-01T18:31:26.917Z,8.30
2022-11-01T18:34:22.517Z,5.93
2022-11-01T18:37:21.445Z,8.10
2022-11-01T18:40:17.917Z,8.65
2022-11-01T18:43:09.022Z,8.63
2022-11-01T18:46:24.353Z,6.40
2022-11-01T18:49:11.851Z,8.57
2022-11-01T18:51:59.651Z,8.27
2022-11-01T18:54:55.183Z,7.47
2022-11-01T18:57:44.485Z,5.32
2022-11-01T19:00:31.695Z,5.88
2022-11-01T19:03:23.970Z,6.63
2022-11-01T19:06:19.849Z,4.93
2022-11-01T19:09:21.880Z,6.57
2022-11-01T19:12:16.806Z,8.00
2022-11-01T19:15:19.566Z,5.82
2022-11-01T19:18:19.677Z,4.77
2022-11-01T19:21:15.298Z,6.75
2022-11-01T19:24:10.162Z,7.03
2022-11-01T19:26:59.378Z,6.28
2022-11-01T19:29:47.221Z,7.70
2022-11-01T19:32:36.497Z,7.67
2022-11-01T19:35:24.861Z,6.80
2022-11-01T19:38:16.467Z,6.97
2022-11-01T19:41:04.223Z,7.00
2022-11-01T19:43:54.894Z,7.65
2022-11-01T19:46:42.909Z,8.07
2022-11-01T19:49:31.908Z,6.72
2022-11-01T19:52:27.210Z,6.90
2022-11-01T19:55:38.404Z,5.45
2022-11-01T19:58:30.001Z,6.00
2022-11-01T20:01:41.156Z,8.63
2022-11-01T20:04:32.629Z,4.15
2022-11-01T20:07:26.778Z,7.85
2022-11-01T20:10:16.074Z,6.65
2022-11-01T20:13:04.614Z,4.72
2022-11-01T20:15:54.469Z,6.90
2022-11-01T20:18:42.625Z,7.55
2022-11-01T20:21:31.680Z,7.32
2022-11-01T20:24:20.785Z,6.05
2022-11-01T20:27:09.652Z,8.82
2022-11-01T20:29:57.327Z,6.40
2022-11-01T20:32:45.205Z,5.78
2022-11-01T20:35:33.079Z,6.57
2022-11-01T20:38:22.831Z,4.75
2022-11-01T20:41:11.154Z,5.95
2022-11-01T20:43:59.359Z,7.47
2022-11-01T20:46:47.549Z,8.20
2022-11-01T20:49:36.028Z,8.95
2022-11-01T20:52:40.015Z,5.00
2022-11-01T20:55:29.427Z,8.55
2022-11-01T20:58:16.742Z,8.13
2022-11-01T21:01:04.128Z,9.27
2022-11-01T21:03:53.446Z,4.95
2022-11-01T21:06:40.505Z,5.25
2022-11-01T21:09:32.376Z,6.70
2022-11-01T21:12:39.892Z,8.23
2022-11-01T21:15:38.511Z,7.20
2022-11-01T21:18:38.044Z,5.28
2022-11-01T21:21:32.241Z,7.05
2022-11-01T21:24:39.220Z,9.55
2022-11-01T21:30:25.013Z,8.00
2022-11-01T21:33:32.111Z,6.07
2022-11-01T21:36:29.028Z,8.13
2022-11-01T21:39:20.676Z,8.27
2022-11-01T21:42:32.082Z,11.33
2022-11-01T21:45:30.719Z,6.97
2022-11-01T21:48:28.118Z,13.00
2022-11-01T21:51:15.994Z,8.32
2022-11-01T21:54:04.689Z,5.90
2022-11-01T21:56:52.134Z,5.83
2022-11-01T21:59:41.607Z,7.78
2022-11-01T22:02:28.985Z,6.07
2022-11-01T22:05:16.824Z,11.38
2022-11-01T22:08:04.270Z,10.13
2022-11-01T22:10:51.436Z,6.90
2022-11-01T22:13:39.395Z,9.23
2022-11-01T22:16:28.505Z,5.20
2022-11-01T22:19:16.129Z,7.60
2022-11-01T22:22:03.557Z,8.23
2022-11-01T22:24:50.776Z,7.10
2022-11-01T22:27:38.490Z,6.85
2022-11-01T22:30:25.919Z,8.45
2022-11-01T22:33:15.298Z,4.95
2022-11-01T22:36:03.213Z,8.68
2022-11-01T22:38:50.692Z,7.57
2022-11-01T22:41:40.352Z,7.28
2022-11-01T22:44:31.949Z,9.20
2022-11-01T22:47:25.734Z,9.10
2022-11-01T22:50:19.928Z,10.15
2022-11-01T22:53:12.499Z,9.93
2022-11-01T22:56:00.095Z,8.30
2022-11-01T22:58:47.551Z,7.10
2022-11-01T23:01:34.880Z,6.82
2022-11-01T23:04:23.555Z,6.32
2022-11-01T23:07:24.248Z,10.07
2022-11-01T23:10:24.431Z,6.38
2022-11-01T23:13:37.760Z,7.60
2022-11-01T23:16:28.708Z,7.90
2022-11-01T23:19:17.011Z,8.40
2022-11-01T23:22:04.521Z,5.27
2022-11-01T23:24:54.625Z,6.88
2022-11-01T23:27:44.686Z,7.53
2022-11-01T23:30:32.319Z,11.80
2022-11-01T23:33:21.673Z,10.07
2022-11-01T23:36:17.328Z,8.27
2022-11-01T23:39:09.146Z,8.20
2022-11-01T23:41:57.788Z,6.93
2022-11-01T23:44:45.584Z,6.10
2022-11-01T23:47:38.220Z,8.00
2022-11-01T23:50:30.453Z,5.60
2022-11-01T23:53:18.721Z,5.68
2022-11-01T23:56:08.508Z,6.25
2022-11-01T23:59:03.948Z,9.38
